首页
METAR-TAF:

METAR-TAF

机场 :

格林维尔, 阿拉巴马州, 美国

纬度: 31-50-44N, 经度: 086-36-38W, 海拔: 138米

当前天气观测

该预报发布于36分钟前的19:56 UTC
风速3节,风向西转西南
温度 20°C
湿度 43%
气压 1014 hPa
能見度: 16.1公里
天空无云

METAR: KPRN 171956Z AUTO 25003KT 10SM CLR 20/07 A2993 RMK AO2 SLP135 T02000072

时间: 14:32 (20:32 UTC)


TAF: 丢失

超过4000个机场的气象观测和天气预报(METAR&TAF报告)。

可查询的气象台以黄色和红色小点在地图上表示。

将鼠标移到小点上方,可查看气象台名称。

然后点击查看天气观测和预报。

如需切换地图:点击带黑十字的绿色按钮放大地图;点击带横线的绿色按钮缩小地图;或者点击绿色箭头查看邻近地区的地图。


METAR-TAF: